createdAt,value
2022-09-21T00:01:31.574Z,5.26
2022-09-21T00:04:04.285Z,5.20
2022-09-21T00:06:35.154Z,5.18
2022-09-21T00:09:08.275Z,5.23
2022-09-21T00:11:37.175Z,5.22
2022-09-21T00:14:13.225Z,5.19
2022-09-21T00:16:43.557Z,5.17
2022-09-21T00:19:12.026Z,5.19
2022-09-21T00:21:39.927Z,5.20
2022-09-21T00:24:08.315Z,5.18
2022-09-21T00:26:35.895Z,5.15
2022-09-21T00:29:05.276Z,5.14
2022-09-21T00:31:33.612Z,5.11
2022-09-21T00:34:01.325Z,5.13
2022-09-21T00:36:29.159Z,5.10
2022-09-21T00:39:01.808Z,5.01
2022-09-21T00:41:33.217Z,4.99
2022-09-21T00:44:44.897Z,4.94
2022-09-21T00:47:39.145Z,4.88
2022-09-21T00:50:18.035Z,4.84
2022-09-21T00:52:57.884Z,4.76
2022-09-21T00:55:44.821Z,4.75
2022-09-21T00:58:26.284Z,4.81
2022-09-21T01:00:54.410Z,4.86
2022-09-21T01:03:21.509Z,4.92
2022-09-21T01:05:48.863Z,4.83
2022-09-21T01:08:18.833Z,4.74
2022-09-21T01:11:34.464Z,4.75
2022-09-21T01:14:41.384Z,4.75
2022-09-21T01:17:22.884Z,4.66
2022-09-21T01:20:23.853Z,4.57
2022-09-21T01:23:39.982Z,4.61
2022-09-21T01:27:04.008Z,4.68
2022-09-21T01:30:11.158Z,4.67
2022-09-21T01:33:17.815Z,4.70
2022-09-21T01:35:58.025Z,4.73
2022-09-21T01:38:44.711Z,4.69
2022-09-21T01:41:21.604Z,4.72
2022-09-21T01:44:03.596Z,4.72
2022-09-21T01:46:34.064Z,4.69
2022-09-21T01:49:15.299Z,4.60
2022-09-21T01:51:58.262Z,4.59
2022-09-21T01:54:43.244Z,4.59
2022-09-21T01:57:28.411Z,4.60
2022-09-21T02:00:01.429Z,4.64
2022-09-21T02:02:58.654Z,4.55
2022-09-21T02:05:32.918Z,4.53
2022-09-21T02:08:01.471Z,4.53
2022-09-21T02:10:55.983Z,4.54
2022-09-21T02:13:32.595Z,4.59
2022-09-21T02:16:08.513Z,4.61
2022-09-21T02:19:15.821Z,4.53
2022-09-21T02:22:25.124Z,4.52
2022-09-21T02:25:10.855Z,4.56
2022-09-21T02:27:55.939Z,4.55
2022-09-21T02:30:27.530Z,4.54
2022-09-21T02:33:41.097Z,4.58
2022-09-21T02:36:57.090Z,4.56
2022-09-21T02:40:01.181Z,4.40
2022-09-21T02:42:39.225Z,4.30
2022-09-21T02:45:27.203Z,4.20
2022-09-21T02:48:05.428Z,4.17
2022-09-21T02:50:55.095Z,4.13
2022-09-21T02:53:37.096Z,4.04
2022-09-21T02:56:11.534Z,4.01
2022-09-21T02:58:50.261Z,4.02
2022-09-21T03:01:20.765Z,4.02
2022-09-21T03:03:49.170Z,4.06
2022-09-21T03:06:16.198Z,4.13
2022-09-21T03:08:44.264Z,4.15
2022-09-21T03:11:11.532Z,4.17
2022-09-21T03:13:38.832Z,4.21
2022-09-21T03:16:07.715Z,4.21
2022-09-21T03:18:35.356Z,4.17
2022-09-21T03:21:03.419Z,4.22
2022-09-21T03:23:31.050Z,4.22
2022-09-21T03:25:58.119Z,4.20
2022-09-21T03:28:25.578Z,4.19
2022-09-21T03:30:53.295Z,4.21
2022-09-21T03:33:21.853Z,4.21
2022-09-21T03:35:49.849Z,4.17
2022-09-21T03:38:17.605Z,4.11
2022-09-21T03:40:49.915Z,4.02
2022-09-21T03:43:18.840Z,3.97
2022-09-21T03:45:46.175Z,3.93
2022-09-21T03:48:14.060Z,3.95
2022-09-21T03:50:41.707Z,3.91
2022-09-21T03:53:10.184Z,3.83
2022-09-21T03:55:37.512Z,3.85
2022-09-21T03:58:04.870Z,3.88
2022-09-21T04:00:32.620Z,3.82
2022-09-21T04:03:00.289Z,3.82
2022-09-21T04:05:27.953Z,3.80
2022-09-21T04:07:57.050Z,3.73
2022-09-21T04:10:32.898Z,3.70
2022-09-21T04:13:04.403Z,3.72
2022-09-21T04:15:31.993Z,3.71
2022-09-21T04:17:59.409Z,3.69
2022-09-21T04:20:26.587Z,3.66
2022-09-21T04:22:53.559Z,3.69
2022-09-21T04:25:20.747Z,3.69
2022-09-21T04:27:48.088Z,3.74
2022-09-21T04:30:16.968Z,3.78
2022-09-21T04:32:44.927Z,3.72
2022-09-21T04:35:11.987Z,3.64
2022-09-21T04:37:38.975Z,3.56
2022-09-21T04:40:08.296Z,3.54
2022-09-21T04:42:35.536Z,3.52
2022-09-21T04:45:02.709Z,3.50
2022-09-21T04:47:31.528Z,3.50
2022-09-21T04:49:58.555Z,3.52
2022-09-21T04:52:25.698Z,3.53
2022-09-21T04:54:53.301Z,3.55
2022-09-21T04:57:20.369Z,3.59
2022-09-21T04:59:47.391Z,3.57
2022-09-21T05:02:14.545Z,3.58
2022-09-21T05:04:41.541Z,3.57
2022-09-21T05:07:08.515Z,3.58
2022-09-21T05:09:54.559Z,3.63
2022-09-21T05:12:22.182Z,3.69
2022-09-21T05:14:52.135Z,3.70
2022-09-21T05:17:22.756Z,3.69
2022-09-21T05:19:51.743Z,3.75
2022-09-21T05:22:18.838Z,3.79
2022-09-21T05:24:46.416Z,3.82
2022-09-21T05:27:14.053Z,3.84
2022-09-21T05:29:42.628Z,3.88
2022-09-21T05:33:01.530Z,3.94
2022-09-21T05:36:05.118Z,3.99
2022-09-21T05:38:33.260Z,4.06
2022-09-21T05:41:01.808Z,4.13
2022-09-21T05:43:29.301Z,4.18
2022-09-21T05:46:35.805Z,4.21
2022-09-21T05:49:46.597Z,4.25
2022-09-21T05:52:38.475Z,4.28
2022-09-21T05:56:23.900Z,4.35
2022-09-21T05:59:53.701Z,4.45
2022-09-21T06:02:53.307Z,4.58
2022-09-21T06:05:21.317Z,4.76
2022-09-21T06:07:48.314Z,4.93
2022-09-21T06:10:16.331Z,5.09
2022-09-21T06:12:43.430Z,5.27
2022-09-21T06:15:17.144Z,5.44
2022-09-21T06:17:44.308Z,5.68
2022-09-21T06:20:11.314Z,5.91
2022-09-21T06:22:38.277Z,6.04
2022-09-21T06:25:06.164Z,6.16
2022-09-21T06:27:33.143Z,6.29
2022-09-21T06:30:00.192Z,6.52
2022-09-21T06:32:28.711Z,6.87
2022-09-21T06:34:55.633Z,7.17
2022-09-21T06:37:22.650Z,7.52
2022-09-21T06:39:49.560Z,7.65
2022-09-21T06:42:17.282Z,7.71
2022-09-21T06:44:44.358Z,7.77
2022-09-21T06:47:11.266Z,7.78
2022-09-21T06:49:42.363Z,7.88
2022-09-21T06:52:09.742Z,7.91
2022-09-21T06:54:36.900Z,7.85
2022-09-21T06:57:04.032Z,7.92
2022-09-21T06:59:31.112Z,7.85
2022-09-21T07:01:58.676Z,7.89
2022-09-21T07:04:26.136Z,7.92
2022-09-21T07:06:53.247Z,7.95
2022-09-21T07:12:10.987Z,8.08
2022-09-21T07:14:38.355Z,8.18
2022-09-21T07:17:05.711Z,8.31
2022-09-21T07:19:32.635Z,8.37
2022-09-21T07:21:59.667Z,8.48
2022-09-21T07:24:26.584Z,8.51
2022-09-21T07:26:53.517Z,8.65
2022-09-21T07:29:20.550Z,8.80
2022-09-21T07:31:48.502Z,8.96
2022-09-21T07:34:15.507Z,9.04
2022-09-21T07:36:43.107Z,9.21
2022-09-21T07:39:11.282Z,9.40
2022-09-21T07:41:38.975Z,9.51
2022-09-21T07:44:06.095Z,9.54
2022-09-21T07:46:33.166Z,9.63
2022-09-21T07:49:00.118Z,9.68
2022-09-21T07:51:27.106Z,9.66
2022-09-21T07:53:57.251Z,9.85
2022-09-21T07:56:25.489Z,9.92
2022-09-21T07:59:07.665Z,9.84
2022-09-21T08:01:42.227Z,10.04
2022-09-21T08:04:11.480Z,10.13
2022-09-21T08:06:42.431Z,10.43
2022-09-21T08:09:09.461Z,10.54
2022-09-21T08:11:37.831Z,10.54
2022-09-21T08:14:05.578Z,10.58
2022-09-21T08:16:34.076Z,10.61
2022-09-21T08:19:02.274Z,10.63
2022-09-21T08:21:29.136Z,10.58
2022-09-21T08:23:56.123Z,10.57
2022-09-21T08:26:23.960Z,10.54
2022-09-21T08:28:53.900Z,10.62
2022-09-21T08:31:24.551Z,10.93
2022-09-21T08:33:55.204Z,11.23
2022-09-21T08:36:22.147Z,11.41
2022-09-21T08:38:49.230Z,11.42
2022-09-21T08:41:48.053Z,11.39
2022-09-21T08:44:54.309Z,11.41
2022-09-21T08:47:43.858Z,11.56
2022-09-21T08:50:46.705Z,11.61
2022-09-21T08:53:45.790Z,11.75
2022-09-21T08:56:16.229Z,11.85
2022-09-21T08:58:43.962Z,11.89
2022-09-21T09:01:31.985Z,11.98
2022-09-21T09:05:01.589Z,12.17
2022-09-21T09:08:21.817Z,12.10
2022-09-21T09:11:46.789Z,12.14
2022-09-21T09:15:33.474Z,12.19
2022-09-21T09:18:43.419Z,12.27
2022-09-21T09:21:31.906Z,12.58
2022-09-21T09:24:31.829Z,12.65
2022-09-21T09:27:19.314Z,12.66
2022-09-21T09:30:05.071Z,12.96
2022-09-21T09:32:53.369Z,13.07
2022-09-21T09:35:51.721Z,13.21
2022-09-21T09:38:56.316Z,13.60
2022-09-21T09:42:15.832Z,13.89
2022-09-21T09:45:16.302Z,14.25
2022-09-21T09:48:53.309Z,14.30
2022-09-21T09:51:21.253Z,14.28
2022-09-21T09:53:48.344Z,14.14
2022-09-21T09:56:15.459Z,14.03
2022-09-21T09:59:08.208Z,14.03
2022-09-21T10:01:58.115Z,13.76
2022-09-21T10:04:25.416Z,13.91
2022-09-21T10:06:52.414Z,14.27
2022-09-21T10:09:35.637Z,14.08
2022-09-21T10:12:25.542Z,13.96
2022-09-21T10:15:00.868Z,14.08
2022-09-21T10:17:28.354Z,14.30
2022-09-21T10:20:06.508Z,14.66
2022-09-21T10:22:33.570Z,15.11
2022-09-21T10:25:05.282Z,15.42
2022-09-21T10:27:45.334Z,15.32
2022-09-21T10:30:38.861Z,15.09
2022-09-21T10:33:22.185Z,14.92
2022-09-21T10:35:53.115Z,15.16
2022-09-21T10:38:30.703Z,15.26
2022-09-21T10:40:58.166Z,15.43
2022-09-21T10:43:45.954Z,15.73
2022-09-21T10:46:14.643Z,15.71
2022-09-21T10:48:46.894Z,15.89
2022-09-21T10:51:31.927Z,15.85
2022-09-21T10:53:59.107Z,15.60
2022-09-21T10:56:26.642Z,15.38
2022-09-21T10:59:25.568Z,15.23
2022-09-21T11:01:58.669Z,15.27
2022-09-21T11:04:48.599Z,15.19
2022-09-21T11:07:27.375Z,14.86
2022-09-21T11:10:44.977Z,14.90
2022-09-21T11:13:35.371Z,14.72
2022-09-21T11:16:35.125Z,14.71
2022-09-21T11:19:42.534Z,14.86
2022-09-21T11:22:43.250Z,14.82
2022-09-21T11:25:24.923Z,14.94
2022-09-21T11:28:26.045Z,15.06
2022-09-21T11:32:06.067Z,14.94
2022-09-21T11:35:15.347Z,14.75
2022-09-21T11:38:39.872Z,14.58
2022-09-21T11:41:39.019Z,14.35
2022-09-21T11:44:27.846Z,14.27
2022-09-21T11:47:46.901Z,14.48
2022-09-21T11:50:46.461Z,14.84
2022-09-21T11:54:37.801Z,15.30
2022-09-21T11:57:23.163Z,15.77
2022-09-21T12:00:15.792Z,15.65
2022-09-21T12:03:55.017Z,15.44
2022-09-21T12:06:56.141Z,15.64
2022-09-21T12:10:08.938Z,15.74
2022-09-21T12:13:04.560Z,15.53
2022-09-21T12:16:03.035Z,15.17
2022-09-21T12:19:00.846Z,14.82
2022-09-21T12:22:09.707Z,14.74
2022-09-21T12:24:59.239Z,15.07
2022-09-21T12:27:36.593Z,15.44
2022-09-21T12:30:19.528Z,15.75
2022-09-21T12:32:53.511Z,15.73
2022-09-21T12:36:02.337Z,15.61
2022-09-21T12:38:59.584Z,15.34
2022-09-21T12:41:52.338Z,15.13
2022-09-21T12:44:53.490Z,15.13
2022-09-21T12:48:29.434Z,15.17
2022-09-21T12:51:29.700Z,15.20
2022-09-21T12:54:12.362Z,15.21
2022-09-21T12:57:42.709Z,15.14
2022-09-21T13:00:19.801Z,14.86
2022-09-21T13:03:40.541Z,15.01
2022-09-21T13:06:57.723Z,15.43
2022-09-21T13:09:31.140Z,15.95
2022-09-21T13:12:17.421Z,16.08
2022-09-21T13:15:03.205Z,16.42
2022-09-21T13:17:34.004Z,16.49
2022-09-21T13:20:22.675Z,16.53
2022-09-21T13:23:01.753Z,16.46
2022-09-21T13:25:37.914Z,16.57
2022-09-21T13:28:13.666Z,16.58
2022-09-21T13:34:32.557Z,16.03
2022-09-21T13:37:20.653Z,16.16
2022-09-21T13:40:03.271Z,16.22
2022-09-21T13:42:33.271Z,16.40
2022-09-21T13:45:24.744Z,16.05
2022-09-21T13:48:00.359Z,15.61
2022-09-21T13:50:43.318Z,15.29
2022-09-21T13:53:40.264Z,15.31
2022-09-21T13:56:20.991Z,15.55
2022-09-21T13:58:57.383Z,15.97
2022-09-21T14:01:46.633Z,16.55
2022-09-21T14:04:37.739Z,16.95
2022-09-21T14:07:08.688Z,17.19
2022-09-21T14:10:00.948Z,17.33
2022-09-21T14:12:45.526Z,17.65
2022-09-21T14:15:19.576Z,17.42
2022-09-21T14:18:38.138Z,16.71
2022-09-21T14:21:19.030Z,16.00
2022-09-21T14:24:07.931Z,15.56
2022-09-21T14:26:41.278Z,15.11
2022-09-21T14:29:53.208Z,14.78
2022-09-21T14:32:33.675Z,14.57
2022-09-21T14:35:19.181Z,14.36
2022-09-21T14:37:57.923Z,14.21
2022-09-21T14:40:39.217Z,14.08
2022-09-21T14:43:22.042Z,14.13
2022-09-21T14:46:40.623Z,14.17
2022-09-21T14:49:34.960Z,14.48
2022-09-21T14:53:11.436Z,15.51
2022-09-21T14:56:58.302Z,16.05
2022-09-21T15:00:24.608Z,16.67
2022-09-21T15:03:30.782Z,17.43
2022-09-21T15:06:38.256Z,18.09
2022-09-21T15:10:24.205Z,18.50
2022-09-21T15:13:10.523Z,19.24
2022-09-21T15:16:26.271Z,19.64
2022-09-21T15:19:24.819Z,20.18
2022-09-21T15:22:17.312Z,19.72
2022-09-21T15:24:56.860Z,18.70
2022-09-21T15:27:33.509Z,17.78
2022-09-21T15:30:06.422Z,17.04
2022-09-21T15:32:46.603Z,16.80
2022-09-21T15:35:27.843Z,16.35
2022-09-21T15:38:00.886Z,15.98
2022-09-21T15:40:46.211Z,15.88
2022-09-21T15:43:15.897Z,15.92
2022-09-21T15:46:00.917Z,16.48
2022-09-21T15:48:38.381Z,16.53
2022-09-21T15:51:31.885Z,15.87
2022-09-21T15:54:21.308Z,15.29
2022-09-21T15:56:48.642Z,14.87
2022-09-21T15:59:22.310Z,14.60
2022-09-21T16:01:55.872Z,14.36
2022-09-21T16:04:28.046Z,14.14
2022-09-21T16:07:34.416Z,14.04
2022-09-21T16:10:24.172Z,13.84
2022-09-21T16:12:51.298Z,13.65
2022-09-21T16:15:22.429Z,13.47
2022-09-21T16:18:06.944Z,13.33
2022-09-21T16:20:48.041Z,13.12
2022-09-21T16:23:24.365Z,12.94
2022-09-21T16:26:01.720Z,12.83
2022-09-21T16:28:42.172Z,12.69
2022-09-21T16:31:36.341Z,12.59
2022-09-21T16:34:36.999Z,12.48
2022-09-21T16:37:24.339Z,12.49
2022-09-21T16:39:54.401Z,12.41
2022-09-21T16:42:27.978Z,12.29
2022-09-21T16:44:55.905Z,12.19
2022-09-21T16:47:27.290Z,12.12
2022-09-21T16:50:01.593Z,12.00
2022-09-21T16:52:30.775Z,11.87
2022-09-21T16:54:58.917Z,11.76
2022-09-21T16:57:26.661Z,11.66
2022-09-21T16:59:53.692Z,11.57
2022-09-21T17:02:21.056Z,11.49
2022-09-21T17:04:48.247Z,11.39
2022-09-21T17:07:20.126Z,11.29
2022-09-21T17:09:48.292Z,11.18
2022-09-21T17:12:19.068Z,11.11
2022-09-21T17:14:47.346Z,11.05
2022-09-21T17:17:24.391Z,10.97
2022-09-21T17:19:54.254Z,10.92
2022-09-21T17:22:21.988Z,10.86
2022-09-21T17:24:52.849Z,10.79
2022-09-21T17:27:26.795Z,10.72
2022-09-21T17:29:55.361Z,10.66
2022-09-21T17:32:24.791Z,10.58
2022-09-21T17:35:41.861Z,10.49
2022-09-21T17:38:12.597Z,10.41
2022-09-21T17:40:43.087Z,10.36
2022-09-21T17:43:50.194Z,10.29
2022-09-21T17:46:50.514Z,10.22
2022-09-21T17:49:18.867Z,10.14
2022-09-21T17:52:04.881Z,10.11
2022-09-21T17:54:32.220Z,10.07
2022-09-21T17:57:49.135Z,9.99
2022-09-21T18:00:28.743Z,9.94
2022-09-21T18:02:56.177Z,9.91
2022-09-21T18:05:30.365Z,9.79
2022-09-21T18:07:58.409Z,9.76
2022-09-21T18:10:27.213Z,9.71
2022-09-21T18:13:24.107Z,9.62
2022-09-21T18:16:46.227Z,9.49
2022-09-21T18:20:03.219Z,9.40
2022-09-21T18:23:14.181Z,9.31
2022-09-21T18:25:49.204Z,9.27
2022-09-21T18:28:42.251Z,9.21
2022-09-21T18:31:43.275Z,9.18
2022-09-21T18:34:41.735Z,9.13
2022-09-21T18:37:26.569Z,9.08
2022-09-21T18:40:35.713Z,9.04
2022-09-21T18:43:55.395Z,8.94
2022-09-21T18:46:50.838Z,8.89
2022-09-21T18:50:15.174Z,8.81
2022-09-21T18:53:11.674Z,8.77
2022-09-21T18:55:39.242Z,8.75
2022-09-21T18:58:06.634Z,8.70
2022-09-21T19:00:35.440Z,8.64
2022-09-21T19:03:17.698Z,8.60
2022-09-21T19:06:45.831Z,8.52
2022-09-21T19:09:41.132Z,8.45
2022-09-21T19:13:00.210Z,8.36
2022-09-21T19:16:00.939Z,8.31
2022-09-21T19:19:07.350Z,8.26
2022-09-21T19:22:10.464Z,8.18
2022-09-21T19:24:58.738Z,8.12
2022-09-21T19:27:39.821Z,8.07
2022-09-21T19:30:14.156Z,8.00
2022-09-21T19:32:58.391Z,8.01
2022-09-21T19:35:28.837Z,8.02
2022-09-21T19:38:04.021Z,8.01
2022-09-21T19:40:37.253Z,7.97
2022-09-21T19:43:35.553Z,7.90
2022-09-21T19:46:50.330Z,7.85
2022-09-21T19:49:20.935Z,7.80
2022-09-21T19:51:58.490Z,7.80
2022-09-21T19:54:44.735Z,7.77
2022-09-21T19:57:42.365Z,7.77
2022-09-21T20:00:16.760Z,7.74
2022-09-21T20:03:26.029Z,7.67
2022-09-21T20:06:20.359Z,7.62
2022-09-21T20:09:29.157Z,7.56
2022-09-21T20:12:11.017Z,7.58
2022-09-21T20:15:22.578Z,7.54
2022-09-21T20:18:03.389Z,7.49
2022-09-21T20:20:31.176Z,7.47
2022-09-21T20:23:00.313Z,7.47
2022-09-21T20:25:51.574Z,7.46
2022-09-21T20:28:19.093Z,7.47
2022-09-21T20:30:46.640Z,7.49
2022-09-21T20:33:22.704Z,7.47
2022-09-21T20:35:55.390Z,7.46
2022-09-21T20:38:23.698Z,7.46
2022-09-21T20:40:51.689Z,7.49
2022-09-21T20:43:19.693Z,7.53
2022-09-21T20:45:49.440Z,7.55
2022-09-21T20:48:17.274Z,7.57
2022-09-21T20:50:50.685Z,7.59
2022-09-21T20:53:19.364Z,7.61
2022-09-21T20:56:03.753Z,7.61
2022-09-21T20:58:31.016Z,7.62
2022-09-21T21:01:08.817Z,7.67
2022-09-21T21:03:36.551Z,7.72
2022-09-21T21:06:20.710Z,7.73
2022-09-21T21:08:48.018Z,7.68
2022-09-21T21:11:14.932Z,7.69
2022-09-21T21:13:42.607Z,7.72
2022-09-21T21:16:12.363Z,7.71
2022-09-21T21:18:43.458Z,7.74
2022-09-21T21:21:10.480Z,7.77
2022-09-21T21:23:56.236Z,7.80
2022-09-21T21:26:38.268Z,7.82
2022-09-21T21:29:13.690Z,7.85
2022-09-21T21:31:41.292Z,7.88
2022-09-21T21:34:08.431Z,7.86
2022-09-21T21:36:35.434Z,7.88
2022-09-21T21:39:02.413Z,7.92
2022-09-21T21:41:31.229Z,7.91
2022-09-21T21:43:58.787Z,7.92
2022-09-21T21:46:29.848Z,7.98
2022-09-21T21:48:56.886Z,8.02
2022-09-21T21:51:23.833Z,8.05
2022-09-21T21:53:51.232Z,8.05
2022-09-21T21:56:20.315Z,8.06
2022-09-21T21:58:47.296Z,8.06
2022-09-21T22:01:20.947Z,8.03
2022-09-21T22:03:58.181Z,7.92
2022-09-21T22:06:28.021Z,7.92
2022-09-21T22:08:57.497Z,7.94
2022-09-21T22:11:27.568Z,7.97
2022-09-21T22:13:55.742Z,7.93
2022-09-21T22:16:25.946Z,7.90
2022-09-21T22:18:53.584Z,7.90
2022-09-21T22:21:31.782Z,7.88
2022-09-21T22:24:04.346Z,7.90
2022-09-21T22:26:38.616Z,7.95
2022-09-21T22:29:09.593Z,7.94
2022-09-21T22:31:42.862Z,7.90
2022-09-21T22:34:12.591Z,7.84
2022-09-21T22:36:40.818Z,7.78
2022-09-21T22:39:09.316Z,7.72
2022-09-21T22:41:41.827Z,7.64
2022-09-21T22:44:11.615Z,7.63
2022-09-21T22:46:39.058Z,7.66
2022-09-21T22:49:06.687Z,7.72
2022-09-21T22:51:35.570Z,7.72
2022-09-21T22:54:02.809Z,7.69
2022-09-21T22:56:33.646Z,7.70
2022-09-21T22:59:04.580Z,7.76
2022-09-21T23:01:37.761Z,7.80
2022-09-21T23:04:13.236Z,7.81
2022-09-21T23:06:45.301Z,7.70
2022-09-21T23:09:21.079Z,7.62
2022-09-21T23:11:54.341Z,7.58
2022-09-21T23:14:23.491Z,7.58
2022-09-21T23:16:50.945Z,7.60
2022-09-21T23:19:17.926Z,7.64
2022-09-21T23:21:49.914Z,7.64
2022-09-21T23:24:19.308Z,7.67
2022-09-21T23:26:47.973Z,7.67
2022-09-21T23:29:16.310Z,7.57
2022-09-21T23:31:45.758Z,7.52
2022-09-21T23:34:15.199Z,7.57
2022-09-21T23:36:45.167Z,7.62
2022-09-21T23:39:15.727Z,7.67
2022-09-21T23:41:43.943Z,7.66
2022-09-21T23:44:11.413Z,7.70
2022-09-21T23:46:40.426Z,7.73
2022-09-21T23:49:08.424Z,7.77
2022-09-21T23:51:36.584Z,7.80
2022-09-21T23:54:04.053Z,7.83
2022-09-21T23:56:31.876Z,7.85
2022-09-21T23:59:00.141Z,7.86
